Terminal Aerodrome Forecast
Issued by NWS Melbourne, FL

Home | Current Version | Previous Version | Text Only | Print | Product List | Glossary On
Versions: 1 2 3 4 5 6 7 8 9 10 11 12
319
FTUS42 KMLB 212339
TAFMLB
TAF
KMLB 212339Z 2200/2224 09009KT P6SM VCSH FEW030
     FM220800 07006KT P6SM FEW015 SCT020
     FM221500 08011KT P6SM VCSH SCT025 SCT050=

USA.gov is the U.S. government's official web portal to all federal, state and local government web resources and services.